Time;durP1;ratioP1;P1;durP2;ratioP2;P2;SDS_P1;SDS_P2;PMS_P1;PMS_P2;Temp;Humidity;BMP_temperature;BMP_pressure;BME280_temperature;BME280_humidity;BME280_pressure;Samples;Min_cycle;Max_cycle;Signal;HPM_P1;HPM_P2
2021/07/08 00:01:58;;;;;;;1.23;1.13;;;17.70;99.90;;;;;;4862409;29;20447;-79
2021/07/08 00:04:24;;;;;;;1.40;1.30;;;17.70;99.90;;;;;;4862928;29;20434;-79
2021/07/08 00:06:49;;;;;;;1.10;1.10;;;17.70;99.90;;;;;;4877596;29;20455;-79
2021/07/08 00:09:15;;;;;;;1.40;1.30;;;17.70;99.90;;;;;;4863526;29;20408;-79
2021/07/08 00:11:41;;;;;;;1.23;1.23;;;17.70;99.90;;;;;;4862821;29;20423;-80
2021/07/08 00:14:07;;;;;;;1.30;1.30;;;17.60;99.90;;;;;;4863045;29;20793;-83
2021/07/08 00:16:37;;;;;;;1.40;1.30;;;17.60;99.90;;;;;;4862258;29;20398;-78
2021/07/08 00:19:05;;;;;;;1.63;1.33;;;17.60;99.90;;;;;;4892581;29;20919;-81
2021/07/08 00:21:30;;;;;;;1.38;1.30;;;17.60;99.90;;;;;;4863295;29;20399;-79
2021/07/08 00:23:56;;;;;;;1.20;1.20;;;17.60;99.90;;;;;;4864207;29;20414;-79
2021/07/08 00:26:21;;;;;;;1.20;1.10;;;17.60;99.90;;;;;;4875514;29;20430;-80
2021/07/08 00:28:47;;;;;;;1.40;1.30;;;17.60;99.90;;;;;;4878019;29;20399;-81
2021/07/08 00:31:13;;;;;;;1.30;1.20;;;17.60;99.90;;;;;;4886951;29;20405;-78
2021/07/08 00:33:39;;;;;;;1.20;1.20;;;17.60;99.90;;;;;;4895719;29;20803;-78
2021/07/08 00:36:05;;;;;;;1.40;1.30;;;17.60;99.90;;;;;;4896294;29;20433;-77
2021/07/08 00:38:31;;;;;;;1.60;1.50;;;17.50;99.90;;;;;;4896825;29;20790;-78
2021/07/08 00:40:56;;;;;;;1.90;1.60;;;17.50;99.90;;;;;;4895555;29;20959;-78
2021/07/08 00:43:22;;;;;;;1.40;1.30;;;17.50;99.90;;;;;;4896594;29;20960;-79
2021/07/08 00:45:48;;;;;;;1.57;1.47;;;17.50;99.90;;;;;;4894229;29;20429;-80
2021/07/08 00:48:13;;;;;;;10.05;1.63;;;17.40;99.90;;;;;;4862384;29;20399;-79
2021/07/08 00:50:42;;;;;;;1.33;1.23;;;17.40;99.90;;;;;;4878768;29;20403;-78
2021/07/08 00:53:11;;;;;;;1.80;1.58;;;17.30;99.90;;;;;;4866053;29;20418;-80
2021/07/08 00:55:37;;;;;;;1.60;1.50;;;17.30;99.90;;;;;;4845936;29;20411;-79
2021/07/08 00:58:04;;;;;;;1.30;1.20;;;17.20;99.90;;;;;;4892690;29;20417;-80
2021/07/08 01:00:32;;;;;;;1.55;1.45;;;17.20;99.90;;;;;;4876420;29;20426;-79
2021/07/08 01:02:58;;;;;;;1.40;1.30;;;17.20;99.90;;;;;;4876249;29;20401;-79
2021/07/08 01:05:26;;;;;;;1.50;1.40;;;17.10;99.90;;;;;;4877853;29;20896;-79
2021/07/08 01:07:52;;;;;;;1.30;1.30;;;17.10;99.90;;;;;;4876871;29;20958;-79
2021/07/08 01:10:18;;;;;;;1.10;1.10;;;17.10;99.90;;;;;;4877219;29;20395;-79
2021/07/08 01:12:44;;;;;;;1.40;1.30;;;17.10;99.90;;;;;;4879772;29;20399;-80
2021/07/08 01:15:10;;;;;;;1.45;1.20;;;17.10;99.90;;;;;;4878640;29;20407;-79
2021/07/08 01:17:37;;;;;;;1.30;1.30;;;17.00;99.90;;;;;;4877848;29;20458;-81
2021/07/08 01:20:04;;;;;;;2.67;1.20;;;17.00;99.90;;;;;;4891674;29;20407;-79
2021/07/08 01:22:30;;;;;;;1.50;1.40;;;17.00;99.90;;;;;;4892773;29;20838;-79
2021/07/08 01:24:56;;;;;;;1.63;1.53;;;17.00;99.90;;;;;;4892807;29;20430;-81
2021/07/08 01:27:21;;;;;;;3.10;1.50;;;17.00;99.90;;;;;;4882665;29;20758;-79
2021/07/08 01:29:47;;;;;;;2.13;1.70;;;16.90;99.90;;;;;;4876810;29;20467;-79
2021/07/08 01:32:13;;;;;;;1.67;1.58;;;16.80;99.90;;;;;;4861343;29;20919;-78
2021/07/08 01:34:38;;;;;;;1.47;1.37;;;16.80;99.90;;;;;;4876526;29;20417;-79
2021/07/08 01:37:04;;;;;;;1.67;1.53;;;16.80;99.90;;;;;;4876280;29;20411;-79
2021/07/08 01:39:30;;;;;;;1.70;1.60;;;16.80;99.90;;;;;;4876100;29;20470;-82
2021/07/08 01:41:56;;;;;;;1.53;1.43;;;16.70;99.90;;;;;;4876308;29;20916;-80
2021/07/08 01:44:21;;;;;;;1.70;1.60;;;16.70;99.90;;;;;;4876280;29;20449;-84
2021/07/08 01:46:47;;;;;;;2.40;1.70;;;16.70;99.90;;;;;;4875187;29;20479;-80
2021/07/08 01:49:13;;;;;;;1.52;1.42;;;16.60;99.90;;;;;;4860624;29;20410;-79
2021/07/08 01:51:39;;;;;;;1.53;1.43;;;16.60;99.90;;;;;;4861141;29;20441;-80
2021/07/08 01:54:08;;;;;;;5.03;1.58;;;16.60;99.90;;;;;;4875580;29;20486;-81
2021/07/08 01:56:33;;;;;;;1.80;1.40;;;16.60;99.90;;;;;;4875972;29;20407;-78
2021/07/08 01:58:59;;;;;;;1.30;1.30;;;16.50;99.90;;;;;;4891715;29;20410;-78
2021/07/08 02:01:25;;;;;;;1.45;1.40;;;16.50;99.90;;;;;;4876986;29;20423;-78
2021/07/08 02:03:51;;;;;;;1.80;1.70;;;16.50;99.90;;;;;;4892482;29;20407;-80
2021/07/08 02:06:16;;;;;;;1.80;1.70;;;16.60;99.90;;;;;;4876318;29;20411;-80
2021/07/08 02:08:42;;;;;;;1.40;1.30;;;16.60;99.90;;;;;;4876282;29;20829;-78
2021/07/08 02:11:08;;;;;;;1.52;1.42;;;16.50;99.90;;;;;;4875947;29;20817;-78
2021/07/08 02:13:35;;;;;;;1.60;1.50;;;16.50;99.90;;;;;;4860875;29;20403;-79
2021/07/08 02:16:07;;;;;;;1.55;1.45;;;16.50;99.90;;;;;;4875987;29;20411;-79
2021/07/08 02:18:33;;;;;;;1.48;1.38;;;16.50;99.90;;;;;;4876229;29;20466;-81
2021/07/08 02:20:59;;;;;;;1.58;1.48;;;16.50;99.90;;;;;;4877254;29;20498;-79
2021/07/08 02:23:25;;;;;;;1.70;1.60;;;16.50;99.90;;;;;;4875804;29;20472;-78
2021/07/08 02:25:50;;;;;;;1.60;1.50;;;16.50;99.90;;;;;;4876002;29;21034;-78
2021/07/08 02:28:16;;;;;;;2.30;1.48;;;16.40;99.90;;;;;;4876753;29;20788;-79
2021/07/08 02:30:42;;;;;;;1.58;1.48;;;16.40;99.90;;;;;;4875413;29;20998;-78
2021/07/08 02:33:08;;;;;;;1.20;1.20;;;16.30;99.90;;;;;;4877290;29;20475;-79
2021/07/08 02:35:35;;;;;;;1.40;1.30;;;16.30;99.90;;;;;;4876491;29;20419;-78
2021/07/08 02:38:00;;;;;;;1.80;1.70;;;16.30;99.90;;;;;;4878219;29;20428;-77
2021/07/08 02:40:28;;;;;;;1.70;1.60;;;16.30;99.90;;;;;;4857765;29;20439;-77
2021/07/08 02:42:54;;;;;;;1.92;1.75;;;16.30;99.90;;;;;;4864881;29;21061;-77
2021/07/08 02:45:21;;;;;;;1.70;1.60;;;16.30;99.90;;;;;;4876137;29;20401;-77
2021/07/08 02:47:47;;;;;;;1.70;1.60;;;16.20;99.90;;;;;;4877969;29;20526;-77
2021/07/08 02:50:13;;;;;;;1.80;1.70;;;16.20;99.90;;;;;;4902271;29;20483;-77
2021/07/08 02:52:38;;;;;;;1.70;1.60;;;16.20;99.90;;;;;;4876827;29;20407;-77
2021/07/08 02:55:05;;;;;;;1.92;1.83;;;16.10;99.90;;;;;;4877094;29;20399;-77
2021/07/08 02:57:31;;;;;;;2.00;1.80;;;16.10;99.90;;;;;;4895873;29;20403;-77
2021/07/08 02:59:56;;;;;;;1.40;1.30;;;16.10;99.90;;;;;;4896857;29;20435;-77
2021/07/08 03:02:22;;;;;;;1.43;1.37;;;16.10;99.90;;;;;;4899994;29;20414;-76
2021/07/08 03:04:48;;;;;;;1.40;1.30;;;16.10;99.90;;;;;;4860651;29;20403;-77
2021/07/08 03:07:15;;;;;;;2.53;1.70;;;16.20;99.90;;;;;;4872681;29;20420;-77
2021/07/08 03:09:40;;;;;;;1.55;1.45;;;16.20;99.90;;;;;;4881793;29;20403;-77
2021/07/08 03:12:07;;;;;;;1.60;1.50;;;16.20;99.90;;;;;;4875801;29;20401;-78
2021/07/08 03:14:33;;;;;;;1.73;1.63;;;16.20;99.90;;;;;;4862480;29;20813;-76
2021/07/08 03:16:58;;;;;;;1.50;1.40;;;16.10;99.90;;;;;;4853214;29;20403;-76
2021/07/08 03:19:24;;;;;;;1.75;1.65;;;16.20;99.90;;;;;;4866543;29;20411;-77
2021/07/08 03:21:50;;;;;;;1.57;1.47;;;16.20;99.90;;;;;;4874798;29;20406;-77
2021/07/08 03:24:16;;;;;;;1.77;1.67;;;16.20;99.90;;;;;;4874327;29;20414;-77
2021/07/08 03:26:41;;;;;;;1.92;1.73;;;16.20;99.90;;;;;;4876689;29;20496;-76
2021/07/08 03:29:07;;;;;;;1.67;1.58;;;16.20;99.90;;;;;;4900773;29;20420;-77
2021/07/08 03:31:33;;;;;;;2.60;1.67;;;16.20;99.90;;;;;;4884004;29;21213;-78
2021/07/08 03:33:58;;;;;;;1.70;1.60;;;16.30;99.90;;;;;;4884892;29;20413;-79
2021/07/08 03:36:24;;;;;;;2.08;1.85;;;16.30;99.90;;;;;;4897741;29;21319;-77
2021/07/08 03:38:50;;;;;;;1.80;1.70;;;16.40;99.90;;;;;;4876318;29;20406;-77
2021/07/08 03:41:15;;;;;;;1.75;1.65;;;16.40;99.90;;;;;;4909295;29;20463;-77
2021/07/08 03:43:41;;;;;;;1.77;1.50;;;16.50;99.90;;;;;;4881235;29;20549;-78
2021/07/08 03:46:07;;;;;;;1.55;1.45;;;16.60;99.90;;;;;;4862332;29;20411;-78
2021/07/08 03:48:33;;;;;;;2.90;1.50;;;16.70;99.90;;;;;;4878386;29;20852;-81
2021/07/08 03:50:58;;;;;;;1.42;1.40;;;16.70;99.90;;;;;;4877245;29;20407;-81
2021/07/08 03:53:24;;;;;;;1.90;1.70;;;16.80;99.90;;;;;;4879297;29;20411;-80
2021/07/08 03:55:50;;;;;;;1.90;1.80;;;17.00;99.90;;;;;;4878449;29;20414;-79
2021/07/08 03:58:16;;;;;;;1.87;1.77;;;17.10;99.90;;;;;;4877711;29;20427;-77
2021/07/08 04:00:43;;;;;;;2.00;1.90;;;17.20;99.90;;;;;;4867645;29;20488;-76
2021/07/08 04:03:13;;;;;;;1.83;1.73;;;17.20;99.90;;;;;;4888921;29;20515;-76
2021/07/08 04:05:39;;;;;;;1.80;1.70;;;17.30;99.90;;;;;;4911206;29;20425;-76
2021/07/08 04:08:05;;;;;;;2.60;2.37;;;17.50;99.90;;;;;;4876943;29;20433;-77
2021/07/08 04:10:31;;;;;;;2.53;2.10;;;17.50;99.90;;;;;;4903173;29;20465;-79
2021/07/08 04:12:57;;;;;;;1.92;1.83;;;17.60;99.90;;;;;;4884355;29;20439;-76
2021/07/08 04:15:23;;;;;;;2.15;1.85;;;17.70;99.90;;;;;;4877277;29;20411;-76
2021/07/08 04:17:49;;;;;;;1.70;1.60;;;17.80;99.90;;;;;;4875275;29;20762;-78
2021/07/08 04:20:17;;;;;;;1.40;1.40;;;17.90;99.90;;;;;;4877018;29;20424;-79
2021/07/08 04:22:43;;;;;;;1.63;1.52;;;18.00;99.90;;;;;;4884923;29;20412;-78
2021/07/08 04:25:10;;;;;;;1.20;1.20;;;18.10;99.90;;;;;;4892039;29;20409;-78
2021/07/08 04:27:36;;;;;;;1.70;1.60;;;18.20;99.90;;;;;;4870959;29;20413;-77
2021/07/08 04:30:06;;;;;;;1.63;1.52;;;18.30;99.90;;;;;;4887561;29;20421;-78
2021/07/08 04:32:32;;;;;;;1.58;1.48;;;18.40;99.90;;;;;;4866812;29;20434;-78
2021/07/08 04:34:58;;;;;;;4.03;1.57;;;18.50;99.90;;;;;;4877185;29;20415;-79
2021/07/08 04:37:24;;;;;;;1.70;1.60;;;18.60;99.90;;;;;;4880452;29;20429;-79
2021/07/08 04:39:50;;;;;;;3.33;1.83;;;18.70;99.90;;;;;;4873335;29;20419;-79
2021/07/08 04:42:16;;;;;;;2.17;1.98;;;18.80;99.90;;;;;;4854562;29;20439;-78
2021/07/08 04:44:41;;;;;;;1.97;1.83;;;18.80;99.90;;;;;;4895639;29;20405;-79
2021/07/08 04:47:07;;;;;;;3.47;1.53;;;18.90;99.90;;;;;;4867973;29;20431;-80
2021/07/08 04:49:34;;;;;;;1.40;1.30;;;19.00;99.90;;;;;;4877612;29;20486;-79
2021/07/08 04:52:01;;;;;;;2.00;1.90;;;19.10;99.90;;;;;;4873341;29;20496;-77
2021/07/08 04:54:26;;;;;;;1.92;1.80;;;19.30;99.90;;;;;;4881526;29;20414;-81
2021/07/08 04:56:52;;;;;;;2.93;1.53;;;19.30;99.90;;;;;;4875513;29;20410;-80
2021/07/08 04:59:18;;;;;;;1.67;1.58;;;19.40;99.90;;;;;;4875635;29;20496;-79
2021/07/08 05:01:43;;;;;;;1.80;1.70;;;19.50;99.90;;;;;;4878722;29;20932;-79
2021/07/08 05:04:09;;;;;;;1.83;1.73;;;19.60;99.90;;;;;;4879457;29;24393;-78
2021/07/08 05:06:35;;;;;;;1.50;1.40;;;19.70;99.90;;;;;;4884764;29;20418;-78
2021/07/08 05:09:00;;;;;;;1.80;1.70;;;19.90;99.90;;;;;;4895371;29;20810;-79
2021/07/08 05:11:26;;;;;;;1.63;1.52;;;20.00;99.90;;;;;;4893515;29;20411;-79
2021/07/08 05:13:52;;;;;;;1.83;1.73;;;20.10;99.90;;;;;;4865446;29;20818;-78
2021/07/08 05:16:17;;;;;;;1.80;1.70;;;20.20;99.90;;;;;;4894294;29;20428;-76
2021/07/08 05:18:43;;;;;;;1.75;1.65;;;20.20;99.90;;;;;;4861150;29;20419;-75
2021/07/08 05:21:20;;;;;;;1.50;1.40;;;20.30;99.90;;;;;;4846695;29;20421;-77
2021/07/08 05:23:57;;;;;;;1.60;1.50;;;20.40;99.90;;;;;;4837121;29;20787;-75
2021/07/08 05:26:26;;;;;;;1.52;1.42;;;20.50;99.90;;;;;;4874606;29;20514;-75
2021/07/08 05:28:52;;;;;;;2.13;1.67;;;20.50;99.90;;;;;;4863607;29;20398;-75
2021/07/08 05:31:17;;;;;;;1.60;1.50;;;20.70;99.90;;;;;;4906741;29;20417;-77
2021/07/08 05:33:43;;;;;;;2.05;1.80;;;20.80;99.90;;;;;;4893522;29;20922;-78
2021/07/08 05:36:09;;;;;;;1.50;1.40;;;21.00;99.90;;;;;;4845223;29;20415;-77
2021/07/08 05:38:34;;;;;;;2.03;1.92;;;21.10;99.90;;;;;;4877526;29;20498;-75
2021/07/08 05:41:00;;;;;;;1.75;1.65;;;21.20;99.90;;;;;;4908349;29;20455;-77
2021/07/08 05:43:25;;;;;;;1.53;1.43;;;21.20;99.90;;;;;;4894369;29;20409;-81
2021/07/08 05:45:51;;;;;;;1.65;1.55;;;21.40;99.90;;;;;;4892887;29;20409;-78
2021/07/08 05:48:19;;;;;;;1.67;1.58;;;21.50;99.90;;;;;;4876054;29;20804;-80
2021/07/08 05:50:44;;;;;;;1.50;1.40;;;21.50;99.90;;;;;;4875978;29;20955;-79
2021/07/08 05:53:10;;;;;;;1.20;1.20;;;21.60;99.90;;;;;;4877138;29;20418;-78
2021/07/08 05:55:36;;;;;;;1.58;1.48;;;21.80;99.90;;;;;;4860463;29;20478;-77
2021/07/08 05:58:02;;;;;;;1.27;1.17;;;22.00;99.90;;;;;;4875737;29;20943;-78
2021/07/08 06:00:27;;;;;;;1.50;1.40;;;22.00;99.90;;;;;;4883305;29;20418;-81
2021/07/08 06:02:53;;;;;;;1.50;1.40;;;21.90;99.90;;;;;;4882293;29;20407;-85
2021/07/08 06:05:19;;;;;;;1.58;1.30;;;21.90;99.90;;;;;;4893213;29;20484;-79
2021/07/08 06:07:44;;;;;;;1.08;1.08;;;21.90;99.90;;;;;;4887486;29;20422;-79
2021/07/08 06:10:10;;;;;;;3.00;1.50;;;22.10;99.90;;;;;;4862363;29;20433;-79
2021/07/08 06:12:39;;;;;;;0.93;0.93;;;22.10;99.90;;;;;;4893592;29;20407;-79
2021/07/08 06:15:05;;;;;;;1.48;1.38;;;22.20;99.90;;;;;;4883963;29;20771;-81
2021/07/08 06:17:31;;;;;;;1.30;1.20;;;22.30;99.90;;;;;;4880628;29;20439;-80
2021/07/08 06:19:57;;;;;;;0.90;0.90;;;22.40;99.90;;;;;;4875767;29;20805;-79
2021/07/08 06:22:23;;;;;;;1.13;1.02;;;22.60;99.90;;;;;;4875943;29;21212;-78
2021/07/08 06:24:48;;;;;;;1.23;1.13;;;22.60;99.90;;;;;;4875028;29;20407;-80
2021/07/08 06:27:14;;;;;;;1.23;1.13;;;22.60;99.90;;;;;;4868899;29;20453;-79
2021/07/08 06:29:40;;;;;;;1.17;1.17;;;22.70;99.90;;;;;;4860343;29;20407;-80
2021/07/08 06:32:06;;;;;;;1.40;1.20;;;22.80;99.90;;;;;;4859598;29;20483;-79
2021/07/08 06:34:31;;;;;;;1.13;1.13;;;22.90;99.90;;;;;;4865177;29;21004;-78
2021/07/08 06:36:57;;;;;;;1.65;1.20;;;23.00;99.90;;;;;;4901014;29;20520;-78
2021/07/08 06:39:23;;;;;;;0.98;0.98;;;23.00;99.90;;;;;;4907394;29;20402;-79
2021/07/08 06:41:48;;;;;;;1.13;1.13;;;23.10;99.90;;;;;;4890271;29;20748;-80
2021/07/08 06:44:14;;;;;;;1.77;1.58;;;23.30;99.90;;;;;;4885432;29;20515;-80
2021/07/08 06:46:40;;;;;;;1.00;1.00;;;23.30;99.90;;;;;;4894643;29;20445;-79
2021/07/08 06:49:08;;;;;;;1.30;1.30;;;23.50;99.90;;;;;;4879218;29;20415;-82
2021/07/08 06:51:34;;;;;;;1.17;1.17;;;23.30;99.90;;;;;;4876858;29;20411;-81
2021/07/08 06:54:00;;;;;;;1.47;1.00;;;23.40;99.90;;;;;;4898087;29;20403;-81
2021/07/08 06:56:27;;;;;;;1.30;1.20;;;23.60;99.90;;;;;;4860476;29;20780;-81
2021/07/08 06:58:56;;;;;;;1.30;1.20;;;23.60;99.90;;;;;;4876351;29;20451;-81
2021/07/08 07:01:22;;;;;;;1.27;1.08;;;23.70;99.90;;;;;;4862517;29;20418;-79
2021/07/08 07:03:47;;;;;;;1.05;1.02;;;23.80;99.90;;;;;;4863890;29;20449;-79
2021/07/08 07:06:19;;;;;;;1.02;1.02;;;24.00;99.90;;;;;;4879995;29;20415;-80
2021/07/08 07:08:45;;;;;;;1.00;1.00;;;24.20;99.90;;;;;;4880170;29;21018;-80
2021/07/08 07:11:11;;;;;;;1.20;1.15;;;24.30;99.90;;;;;;4879412;29;20975;-80
2021/07/08 07:13:44;;;;;;;1.20;1.10;;;24.50;99.90;;;;;;4865488;29;20415;-80
2021/07/08 07:16:10;;;;;;;1.05;1.05;;;24.60;99.90;;;;;;4878121;29;20403;-80
2021/07/08 07:18:40;;;;;;;1.02;1.02;;;24.50;99.90;;;;;;4910842;29;20406;-80
2021/07/08 07:21:10;;;;;;;1.00;1.00;;;24.60;99.90;;;;;;4909298;29;20421;-80
2021/07/08 07:23:36;;;;;;;1.08;1.00;;;24.70;99.90;;;;;;4894529;29;20418;-80
2021/07/08 07:26:02;;;;;;;1.00;1.00;;;24.60;99.90;;;;;;4894900;29;20936;-80
2021/07/08 07:28:27;;;;;;;1.50;1.00;;;24.40;99.90;;;;;;4905446;29;20427;-80
2021/07/08 07:30:53;;;;;;;0.83;0.83;;;24.30;99.90;;;;;;4878469;29;20406;-79
2021/07/08 07:33:19;;;;;;;0.95;0.95;;;24.10;99.90;;;;;;4879403;29;20411;-80
2021/07/08 07:35:44;;;;;;;0.90;0.90;;;24.10;99.90;;;;;;4877356;29;20405;-81
2021/07/08 07:38:11;;;;;;;0.90;0.90;;;24.00;99.90;;;;;;4878739;29;20399;-79
2021/07/08 07:40:41;;;;;;;0.80;0.80;;;23.90;99.90;;;;;;4890580;29;20394;-80
2021/07/08 07:43:07;;;;;;;0.90;0.90;;;23.90;99.90;;;;;;4889885;29;20488;-80
2021/07/08 07:45:33;;;;;;;2.20;1.05;;;23.90;99.90;;;;;;4908642;29;20996;-80
2021/07/08 07:47:58;;;;;;;0.93;0.93;;;23.80;99.90;;;;;;4875816;29;20425;-79
2021/07/08 07:50:25;;;;;;;1.23;1.20;;;23.80;99.90;;;;;;4881231;29;20409;-79
2021/07/08 07:52:52;;;;;;;0.90;0.90;;;23.70;99.90;;;;;;4889508;29;20454;-78
2021/07/08 07:55:18;;;;;;;2.95;1.08;;;23.60;99.90;;;;;;4877958;29;20399;-79
2021/07/08 07:57:44;;;;;;;1.70;1.20;;;23.50;99.90;;;;;;4878118;29;20399;-79
2021/07/08 08:00:11;;;;;;;1.00;1.00;;;23.60;99.90;;;;;;4877873;29;20641;-79
2021/07/08 08:02:41;;;;;;;1.20;1.10;;;23.50;99.90;;;;;;4878648;29;20970;-80
2021/07/08 08:05:19;;;;;;;1.30;1.03;;;23.30;99.90;;;;;;4877645;29;20407;-79
2021/07/08 08:10:29;;;;;;;0.95;0.95;;;23.20;99.90;;;;;;4895171;29;20421;-81
2021/07/08 08:12:55;;;;;;;1.40;1.30;;;23.10;99.90;;;;;;4892268;29;20398;-81
2021/07/08 08:15:21;;;;;;;1.00;1.00;;;22.90;99.90;;;;;;4866411;29;20454;-79
2021/07/08 08:17:47;;;;;;;1.30;1.20;;;22.90;99.90;;;;;;4880073;29;20411;-79
2021/07/08 08:20:13;;;;;;;1.00;1.00;;;22.70;99.90;;;;;;4908877;29;20470;-80
2021/07/08 08:22:41;;;;;;;0.90;0.90;;;22.70;99.90;;;;;;4878910;29;20403;-79
2021/07/08 08:25:07;;;;;;;0.90;0.90;;;22.70;99.90;;;;;;4862918;29;20399;-80
2021/07/08 08:27:33;;;;;;;0.75;0.75;;;22.70;99.90;;;;;;4881845;29;20480;-80
2021/07/08 08:29:59;;;;;;;1.10;1.10;;;22.80;99.90;;;;;;4888630;29;20437;-80
2021/07/08 08:32:24;;;;;;;0.90;0.90;;;22.80;99.90;;;;;;4896052;29;20420;-83
2021/07/08 08:34:50;;;;;;;1.30;1.10;;;22.80;99.90;;;;;;4891787;29;20888;-80
2021/07/08 08:37:16;;;;;;;1.10;1.10;;;22.80;99.90;;;;;;4909098;29;20485;-80
2021/07/08 08:39:41;;;;;;;1.70;1.20;;;22.60;99.90;;;;;;4893504;29;20795;-79
2021/07/08 08:42:08;;;;;;;1.00;1.00;;;22.60;99.90;;;;;;4908591;29;20409;-79
2021/07/08 08:44:34;;;;;;;0.88;0.88;;;22.50;99.90;;;;;;4905000;29;20452;-80
2021/07/08 08:46:59;;;;;;;1.10;1.10;;;22.40;99.90;;;;;;4878361;29;20415;-80
2021/07/08 08:49:25;;;;;;;1.30;1.17;;;22.40;99.90;;;;;;4876535;29;20743;-80
2021/07/08 08:51:51;;;;;;;0.82;0.82;;;22.40;99.90;;;;;;4876524;29;20498;-81
2021/07/08 08:54:17;;;;;;;1.00;1.00;;;22.30;99.90;;;;;;4880430;29;20827;-79
2021/07/08 08:56:42;;;;;;;1.05;1.05;;;22.20;99.90;;;;;;4881391;29;20407;-79
2021/07/08 08:59:08;;;;;;;1.00;1.00;;;22.20;99.90;;;;;;4876221;29;20465;-80
2021/07/08 09:01:35;;;;;;;1.50;0.90;;;22.10;99.90;;;;;;4892157;29;20426;-80
2021/07/08 09:04:00;;;;;;;1.20;1.10;;;22.00;99.90;;;;;;4874041;29;20405;-79
2021/07/08 09:06:34;;;;;;;1.10;1.00;;;22.00;99.90;;;;;;4860726;29;20478;-79
2021/07/08 09:09:06;;;;;;;1.08;1.08;;;21.90;99.90;;;;;;4896384;29;20431;-81
2021/07/08 09:11:32;;;;;;;2.08;1.25;;;21.90;99.90;;;;;;4860104;29;20403;-81
2021/07/08 09:14:02;;;;;;;1.33;1.20;;;22.00;99.90;;;;;;4889729;29;20911;-80
2021/07/08 09:16:30;;;;;;;1.13;1.03;;;22.00;99.90;;;;;;4861489;29;21132;-79
2021/07/08 09:19:13;;;;;;;1.35;1.25;;;22.10;99.90;;;;;;4884575;29;20911;-79
2021/07/08 09:22:02;;;;;;;1.20;1.20;;;22.30;99.90;;;;;;4877366;29;20489;-80
2021/07/08 09:24:32;;;;;;;1.20;0.93;;;22.40;99.90;;;;;;4876848;29;20411;-78
2021/07/08 09:27:02;;;;;;;1.10;1.10;;;22.50;99.90;;;;;;4853622;29;20419;-79
2021/07/08 09:29:35;;;;;;;1.20;1.20;;;22.40;99.90;;;;;;4874972;29;20842;-80
2021/07/08 09:32:05;;;;;;;1.10;1.10;;;22.50;99.90;;;;;;4873863;29;20450;-80
2021/07/08 09:34:32;;;;;;;1.52;1.42;;;22.70;99.90;;;;;;4886411;29;20424;-79
2021/07/08 09:37:10;;;;;;;1.60;1.30;;;22.90;99.90;;;;;;4881570;29;20430;-81
2021/07/08 09:39:39;;;;;;;1.17;1.17;;;23.00;99.90;;;;;;4874251;29;20485;-78
2021/07/08 09:42:05;;;;;;;1.30;1.15;;;23.00;99.90;;;;;;4880217;29;20411;-82
2021/07/08 09:44:31;;;;;;;1.50;1.40;;;23.00;99.90;;;;;;4876512;29;20410;-83
2021/07/08 09:46:57;;;;;;;1.40;1.30;;;22.90;99.90;;;;;;4885299;29;20452;-79
2021/07/08 09:49:24;;;;;;;1.48;1.38;;;23.00;99.90;;;;;;4903926;29;20403;-80
2021/07/08 09:51:50;;;;;;;1.20;1.10;;;23.00;99.90;;;;;;4861003;29;20561;-79
2021/07/08 09:54:42;;;;;;;1.33;1.23;;;23.00;99.90;;;;;;4860729;29;20413;-79
2021/07/08 09:57:07;;;;;;;1.10;1.10;;;23.10;99.90;;;;;;4874177;29;20412;-79
2021/07/08 09:59:34;;;;;;;1.40;1.30;;;23.10;99.90;;;;;;4875907;29;20406;-78
2021/07/08 10:02:00;;;;;;;1.08;1.08;;;23.10;99.90;;;;;;4890248;29;21189;-80
2021/07/08 10:04:26;;;;;;;0.90;0.90;;;23.20;99.90;;;;;;4863649;29;20410;-79
2021/07/08 10:06:56;;;;;;;1.30;1.20;;;23.30;99.90;;;;;;4880516;29;20417;-80
2021/07/08 10:09:22;;;;;;;1.10;1.10;;;23.40;99.90;;;;;;4891979;29;20410;-80
2021/07/08 10:11:49;;;;;;;1.35;1.02;;;23.50;99.90;;;;;;4867412;29;20432;-79
2021/07/08 10:14:18;;;;;;;1.00;1.00;;;23.50;99.90;;;;;;4891434;29;20431;-79
2021/07/08 10:16:47;;;;;;;1.03;1.03;;;23.70;99.90;;;;;;4860548;29;20406;-79
2021/07/08 10:19:13;;;;;;;1.00;0.90;;;23.60;99.90;;;;;;4874689;29;20450;-79
2021/07/08 10:21:38;;;;;;;0.80;0.80;;;23.60;99.90;;;;;;4875725;29;20817;-81
2021/07/08 10:24:04;;;;;;;0.98;0.98;;;23.70;99.90;;;;;;4877037;29;20419;-79
2021/07/08 10:26:30;;;;;;;0.90;0.90;;;23.60;99.90;;;;;;4875610;29;20808;-78
2021/07/08 10:28:56;;;;;;;0.80;0.80;;;23.70;99.90;;;;;;4872360;29;20510;-79
2021/07/08 10:31:22;;;;;;;1.27;0.90;;;23.70;99.90;;;;;;4904538;29;20430;-78
2021/07/08 10:34:06;;;;;;;0.80;0.80;;;23.80;99.90;;;;;;4876121;29;20419;-79
2021/07/08 10:36:32;;;;;;;0.80;0.80;;;23.80;99.90;;;;;;4883537;29;20908;-79
2021/07/08 10:39:08;;;;;;;0.90;0.90;;;23.90;99.90;;;;;;4876234;29;20407;-78
2021/07/08 10:41:34;;;;;;;0.70;0.70;;;24.00;99.90;;;;;;4875896;29;20482;-79
2021/07/08 10:44:00;;;;;;;0.80;0.80;;;24.20;99.90;;;;;;4892879;29;20478;-79
2021/07/08 10:46:36;;;;;;;0.77;0.77;;;24.40;99.90;;;;;;4874699;29;20463;-79
2021/07/08 10:49:11;;;;;;;0.90;0.90;;;24.30;99.90;;;;;;4876083;29;20411;-79
2021/07/08 10:51:38;;;;;;;0.90;0.90;;;24.30;99.90;;;;;;4875085;29;20399;-80
2021/07/08 10:54:31;;;;;;;1.00;1.00;;;24.40;99.90;;;;;;4876531;29;20471;-80
2021/07/08 10:57:03;;;;;;;1.40;0.95;;;24.50;99.90;;;;;;4875427;29;20413;-79
2021/07/08 10:59:43;;;;;;;0.82;0.82;;;24.50;99.90;;;;;;4892310;29;20411;-80
2021/07/08 11:02:09;;;;;;;0.90;0.90;;;24.60;99.90;;;;;;4876508;29;20435;-79
2021/07/08 11:04:42;;;;;;;1.00;1.00;;;24.70;99.90;;;;;;4878546;29;20430;-80
2021/07/08 11:07:21;;;;;;;0.90;0.90;;;24.70;99.90;;;;;;4878718;29;20452;-79
2021/07/08 11:13:35;;;;;;;0.80;0.80;;;25.00;99.90;;;;;;4891390;29;20485;-80
2021/07/08 11:16:00;;;;;;;1.02;1.02;;;25.30;99.90;;;;;;4891486;29;20403;-79
2021/07/08 11:18:31;;;;;;;1.10;1.10;;;25.30;99.90;;;;;;4891411;29;20780;-79
2021/07/08 11:22:01;;;;;;;1.00;0.90;;;25.40;99.90;;;;;;4856231;29;20481;-80
2021/07/08 11:24:30;;;;;;;0.90;0.90;;;25.30;99.90;;;;;;4876257;29;20478;-80
2021/07/08 11:29:51;;;;;;;0.80;0.80;;;25.50;99.90;;;;;;4868498;29;20435;-79
2021/07/08 11:32:22;;;;;;;0.98;0.98;;;25.50;99.90;;;;;;4898772;29;20410;-79
2021/07/08 11:35:56;;;;;;;0.90;0.90;;;25.50;99.90;;;;;;4891604;29;20403;-79
2021/07/08 11:38:44;;;;;;;0.95;0.95;;;25.40;99.90;;;;;;4873517;29;20417;-79
2021/07/08 11:41:09;;;;;;;0.80;0.80;;;25.40;99.90;;;;;;4873625;29;20537;-80
2021/07/08 11:43:38;;;;;;;1.02;1.02;;;25.30;99.90;;;;;;4873034;29;20464;-79
2021/07/08 11:46:08;;;;;;;0.95;0.95;;;25.30;99.90;;;;;;4872293;29;20446;-79
2021/07/08 11:48:36;;;;;;;1.02;1.02;;;25.10;99.90;;;;;;4876639;29;20399;-80
2021/07/08 11:51:32;;;;;;;0.80;0.80;;;25.30;99.90;;;;;;4869450;29;20952;-80
2021/07/08 11:53:58;;;;;;;1.10;1.10;;;25.20;99.90;;;;;;4879310;29;20407;-80
2021/07/08 11:56:24;;;;;;;1.10;1.10;;;25.00;99.90;;;;;;4864701;29;20401;-80
2021/07/08 11:58:56;;;;;;;0.90;0.90;;;25.00;99.90;;;;;;4864251;29;20813;-81
2021/07/08 12:01:27;;;;;;;5.32;1.15;;;25.10;99.90;;;;;;4895527;29;20415;-80
2021/07/08 12:03:55;;;;;;;1.00;1.00;;;25.20;99.90;;;;;;4863766;29;20405;-80
2021/07/08 12:09:50;;;;;;;0.90;0.90;;;25.40;99.90;;;;;;4886929;29;20417;-79
2021/07/08 12:12:16;;;;;;;0.90;0.90;;;25.60;99.90;;;;;;4863341;29;20415;-79
2021/07/08 12:17:59;;;;;;;0.82;0.82;;;25.90;99.90;;;;;;4881598;29;20428;-78
2021/07/08 12:20:25;;;;;;;0.97;0.97;;;26.20;99.90;;;;;;4863425;29;20407;-80
2021/07/08 12:27:19;;;;;;;0.80;0.80;;;26.20;99.90;;;;;;4817679;29;20428;-79
2021/07/08 12:29:44;;;;;;;0.80;0.80;;;26.10;99.90;;;;;;4863585;29;20411;-79
2021/07/08 12:32:22;;;;;;;1.52;1.00;;;26.10;99.90;;;;;;4870977;29;20498;-79
2021/07/08 12:39:38;;;;;;;0.98;0.98;;;26.40;99.90;;;;;;4893983;29;20780;-79
2021/07/08 12:42:04;;;;;;;0.80;0.80;;;26.30;99.90;;;;;;4866780;29;20403;-78
2021/07/08 12:44:29;;;;;;;1.20;1.10;;;26.30;99.90;;;;;;4865587;29;20508;-79
2021/07/08 12:46:55;;;;;;;0.93;0.93;;;26.30;99.90;;;;;;4859070;29;20440;-78
2021/07/08 12:53:31;;;;;;;1.10;1.00;;;26.50;99.90;;;;;;4856597;29;20432;-79
2021/07/08 12:56:24;;;;;;;0.90;0.90;;;26.60;99.90;;;;;;4873878;29;20419;-80
2021/07/08 12:58:59;;;;;;;0.80;0.80;;;26.60;99.90;;;;;;4875395;29;20412;-79
2021/07/08 13:01:29;;;;;;;1.00;1.00;;;26.70;99.90;;;;;;4874352;29;20420;-79
2021/07/08 13:03:55;;;;;;;0.90;0.90;;;26.60;99.90;;;;;;4874631;29;20423;-79
2021/07/08 13:06:28;;;;;;;0.90;0.90;;;26.80;99.90;;;;;;4888080;29;20479;-81
2021/07/08 13:09:08;;;;;;;0.90;0.90;;;27.20;99.90;;;;;;4875669;29;20426;-79
2021/07/08 13:11:36;;;;;;;1.00;1.00;;;27.30;99.90;;;;;;4856700;29;20429;-79
2021/07/08 13:14:28;;;;;;;0.88;0.88;;;27.20;99.90;;;;;;4877700;29;20445;-80
2021/07/08 13:17:04;;;;;;;1.00;1.00;;;27.10;99.90;;;;;;4873517;29;20414;-80
2021/07/08 13:19:31;;;;;;;0.90;0.90;;;27.00;99.90;;;;;;4867073;29;20427;-80
2021/07/08 13:22:18;;;;;;;1.00;1.00;;;27.10;99.90;;;;;;4852386;29;20456;-79